sensor_id;sensor_type;location;lat;lon;timestamp;P1;durP1;ratioP1;P2;durP2;ratioP2
59617;SDS011;45437;51.458;-2.568;2022-07-12T00:00:28;1.92;;;1.20;;
59617;SDS011;45437;51.458;-2.568;2022-07-12T00:01:28;1.63;;;1.00;;
59617;SDS011;45437;51.458;-2.568;2022-07-12T00:02:29;2.03;;;1.20;;
59617;SDS011;45437;51.458;-2.568;2022-07-12T00:03:30;1.80;;;1.10;;
59617;SDS011;45437;51.458;-2.568;2022-07-12T00:04:31;3.53;;;1.20;;
59617;SDS011;45437;51.458;-2.568;2022-07-12T00:05:32;1.83;;;1.13;;
59617;SDS011;45437;51.458;-2.568;2022-07-12T00:06:33;2.57;;;1.10;;
59617;SDS011;45437;51.458;-2.568;2022-07-12T00:07:33;3.20;;;1.50;;
59617;SDS011;45437;51.458;-2.568;2022-07-12T00:08:34;7.63;;;1.40;;
59617;SDS011;45437;51.458;-2.568;2022-07-12T00:09:35;2.63;;;1.20;;
59617;SDS011;45437;51.458;-2.568;2022-07-12T00:10:36;2.47;;;1.10;;
59617;SDS011;45437;51.458;-2.568;2022-07-12T00:11:37;2.53;;;1.43;;
59617;SDS011;45437;51.458;-2.568;2022-07-12T00:12:38;2.05;;;1.00;;
59617;SDS011;45437;51.458;-2.568;2022-07-12T00:13:40;3.60;;;1.05;;
59617;SDS011;45437;51.458;-2.568;2022-07-12T00:14:40;1.90;;;1.40;;
59617;SDS011;45437;51.458;-2.568;2022-07-12T00:15:42;1.37;;;0.90;;
59617;SDS011;45437;51.458;-2.568;2022-07-12T00:16:43;1.77;;;0.98;;
59617;SDS011;45437;51.458;-2.568;2022-07-12T00:17:44;2.27;;;1.17;;
59617;SDS011;45437;51.458;-2.568;2022-07-12T00:18:44;1.57;;;1.07;;
59617;SDS011;45437;51.458;-2.568;2022-07-12T00:19:45;1.67;;;1.00;;
59617;SDS011;45437;51.458;-2.568;2022-07-12T00:20:46;2.83;;;1.23;;
59617;SDS011;45437;51.458;-2.568;2022-07-12T00:21:47;2.27;;;1.27;;
59617;SDS011;45437;51.458;-2.568;2022-07-12T00:22:48;2.17;;;1.10;;
59617;SDS011;45437;51.458;-2.568;2022-07-12T00:23:48;1.37;;;1.07;;
59617;SDS011;45437;51.458;-2.568;2022-07-12T00:24:49;2.57;;;1.00;;
59617;SDS011;45437;51.458;-2.568;2022-07-12T00:25:50;1.63;;;0.90;;
59617;SDS011;45437;51.458;-2.568;2022-07-12T00:26:51;1.40;;;0.90;;
59617;SDS011;45437;51.458;-2.568;2022-07-12T00:27:53;2.58;;;0.90;;
59617;SDS011;45437;51.458;-2.568;2022-07-12T00:28:54;2.25;;;1.20;;
59617;SDS011;45437;51.458;-2.568;2022-07-12T00:29:55;2.13;;;0.97;;
59617;SDS011;45437;51.458;-2.568;2022-07-12T00:30:55;2.60;;;1.17;;
59617;SDS011;45437;51.458;-2.568;2022-07-12T00:31:57;1.10;;;1.00;;
59617;SDS011;45437;51.458;-2.568;2022-07-12T00:32:57;1.70;;;0.90;;
59617;SDS011;45437;51.458;-2.568;2022-07-12T00:33:58;1.80;;;1.23;;
59617;SDS011;45437;51.458;-2.568;2022-07-12T00:35:00;1.67;;;1.20;;
59617;SDS011;45437;51.458;-2.568;2022-07-12T00:36:02;1.75;;;1.17;;
59617;SDS011;45437;51.458;-2.568;2022-07-12T00:37:04;1.55;;;1.10;;
59617;SDS011;45437;51.458;-2.568;2022-07-12T00:38:05;2.57;;;1.40;;
59617;SDS011;45437;51.458;-2.568;2022-07-12T00:39:05;2.77;;;1.43;;
59617;SDS011;45437;51.458;-2.568;2022-07-12T00:40:07;2.17;;;1.50;;
59617;SDS011;45437;51.458;-2.568;2022-07-12T00:41:09;2.60;;;1.20;;
59617;SDS011;45437;51.458;-2.568;2022-07-12T00:42:10;2.23;;;1.10;;
59617;SDS011;45437;51.458;-2.568;2022-07-12T00:43:10;5.47;;;1.23;;
59617;SDS011;45437;51.458;-2.568;2022-07-12T00:44:11;3.20;;;1.10;;
59617;SDS011;45437;51.458;-2.568;2022-07-12T00:45:12;1.97;;;1.07;;
59617;SDS011;45437;51.458;-2.568;2022-07-12T00:46:14;1.05;;;0.90;;
59617;SDS011;45437;51.458;-2.568;2022-07-12T00:48:42;1.88;;;1.10;;
59617;SDS011;45437;51.458;-2.568;2022-07-12T00:49:43;1.70;;;1.20;;
59617;SDS011;45437;51.458;-2.568;2022-07-12T00:50:44;3.30;;;1.30;;
59617;SDS011;45437;51.458;-2.568;2022-07-12T00:51:46;2.13;;;1.05;;
59617;SDS011;45437;51.458;-2.568;2022-07-12T00:52:48;4.13;;;1.10;;
59617;SDS011;45437;51.458;-2.568;2022-07-12T00:53:50;2.10;;;1.00;;
59617;SDS011;45437;51.458;-2.568;2022-07-12T00:54:52;2.42;;;1.05;;
59617;SDS011;45437;51.458;-2.568;2022-07-12T00:55:54;3.37;;;1.20;;
59617;SDS011;45437;51.458;-2.568;2022-07-12T00:56:56;1.85;;;1.20;;
59617;SDS011;45437;51.458;-2.568;2022-07-12T00:57:57;1.92;;;1.15;;
59617;SDS011;45437;51.458;-2.568;2022-07-12T00:58:57;1.63;;;1.20;;
59617;SDS011;45437;51.458;-2.568;2022-07-12T00:59:58;1.50;;;1.10;;
59617;SDS011;45437;51.458;-2.568;2022-07-12T01:00:59;2.78;;;1.15;;
59617;SDS011;45437;51.458;-2.568;2022-07-12T01:02:01;1.70;;;1.30;;
59617;SDS011;45437;51.458;-2.568;2022-07-12T01:03:02;1.60;;;1.00;;
59617;SDS011;45437;51.458;-2.568;2022-07-12T01:05:05;1.70;;;1.00;;
59617;SDS011;45437;51.458;-2.568;2022-07-12T01:06:07;1.33;;;1.10;;
59617;SDS011;45437;51.458;-2.568;2022-07-12T01:07:08;2.35;;;1.30;;
59617;SDS011;45437;51.458;-2.568;2022-07-12T01:08:10;2.72;;;1.20;;
59617;SDS011;45437;51.458;-2.568;2022-07-12T01:09:12;1.75;;;1.20;;
59617;SDS011;45437;51.458;-2.568;2022-07-12T01:10:13;2.17;;;1.23;;
59617;SDS011;45437;51.458;-2.568;2022-07-12T01:11:14;1.87;;;1.10;;
59617;SDS011;45437;51.458;-2.568;2022-07-12T01:12:16;2.30;;;1.23;;
59617;SDS011;45437;51.458;-2.568;2022-07-12T01:13:18;2.67;;;1.30;;
59617;SDS011;45437;51.458;-2.568;2022-07-12T01:14:19;3.45;;;1.58;;
59617;SDS011;45437;51.458;-2.568;2022-07-12T01:15:20;2.05;;;1.10;;
59617;SDS011;45437;51.458;-2.568;2022-07-12T01:16:21;2.10;;;1.23;;
59617;SDS011;45437;51.458;-2.568;2022-07-12T01:17:26;3.08;;;1.30;;
59617;SDS011;45437;51.458;-2.568;2022-07-12T01:18:27;1.45;;;1.30;;
59617;SDS011;45437;51.458;-2.568;2022-07-12T01:19:28;2.97;;;1.38;;
59617;SDS011;45437;51.458;-2.568;2022-07-12T01:20:30;2.65;;;1.40;;
59617;SDS011;45437;51.458;-2.568;2022-07-12T01:21:33;3.38;;;1.23;;
59617;SDS011;45437;51.458;-2.568;2022-07-12T01:22:39;6.57;;;1.50;;
59617;SDS011;45437;51.458;-2.568;2022-07-12T01:23:41;3.13;;;1.20;;
59617;SDS011;45437;51.458;-2.568;2022-07-12T01:24:42;3.05;;;1.40;;
59617;SDS011;45437;51.458;-2.568;2022-07-12T01:25:44;3.65;;;1.60;;
59617;SDS011;45437;51.458;-2.568;2022-07-12T01:26:46;1.80;;;1.30;;
59617;SDS011;45437;51.458;-2.568;2022-07-12T01:28:48;4.20;;;1.23;;
59617;SDS011;45437;51.458;-2.568;2022-07-12T01:29:50;3.63;;;1.25;;
59617;SDS011;45437;51.458;-2.568;2022-07-12T01:30:51;2.75;;;1.27;;
59617;SDS011;45437;51.458;-2.568;2022-07-12T01:31:52;2.33;;;1.50;;
59617;SDS011;45437;51.458;-2.568;2022-07-12T01:32:53;3.77;;;1.53;;
59617;SDS011;45437;51.458;-2.568;2022-07-12T01:33:54;4.38;;;1.50;;
59617;SDS011;45437;51.458;-2.568;2022-07-12T01:35:59;2.05;;;1.23;;
59617;SDS011;45437;51.458;-2.568;2022-07-12T01:37:00;4.57;;;1.48;;
59617;SDS011;45437;51.458;-2.568;2022-07-12T01:38:01;2.60;;;1.38;;
59617;SDS011;45437;51.458;-2.568;2022-07-12T01:39:03;1.40;;;1.23;;
59617;SDS011;45437;51.458;-2.568;2022-07-12T01:40:05;3.80;;;1.40;;
59617;SDS011;45437;51.458;-2.568;2022-07-12T01:41:07;2.95;;;1.35;;
59617;SDS011;45437;51.458;-2.568;2022-07-12T01:42:09;2.92;;;1.30;;
59617;SDS011;45437;51.458;-2.568;2022-07-12T01:43:09;2.33;;;1.40;;
59617;SDS011;45437;51.458;-2.568;2022-07-12T01:44:11;2.10;;;1.25;;
59617;SDS011;45437;51.458;-2.568;2022-07-12T01:45:12;4.22;;;1.58;;
59617;SDS011;45437;51.458;-2.568;2022-07-12T01:46:13;1.43;;;1.30;;
59617;SDS011;45437;51.458;-2.568;2022-07-12T01:47:13;2.43;;;1.20;;
59617;SDS011;45437;51.458;-2.568;2022-07-12T01:48:14;3.28;;;1.52;;
59617;SDS011;45437;51.458;-2.568;2022-07-12T01:49:15;2.13;;;1.40;;
59617;SDS011;45437;51.458;-2.568;2022-07-12T01:50:16;2.77;;;1.30;;
59617;SDS011;45437;51.458;-2.568;2022-07-12T01:51:17;3.97;;;1.50;;
59617;SDS011;45437;51.458;-2.568;2022-07-12T01:52:17;2.17;;;1.40;;
59617;SDS011;45437;51.458;-2.568;2022-07-12T01:53:20;2.15;;;1.42;;
59617;SDS011;45437;51.458;-2.568;2022-07-12T01:54:21;2.67;;;1.52;;
59617;SDS011;45437;51.458;-2.568;2022-07-12T01:55:23;1.35;;;1.10;;
59617;SDS011;45437;51.458;-2.568;2022-07-12T01:56:24;2.00;;;1.30;;
59617;SDS011;45437;51.458;-2.568;2022-07-12T01:57:25;3.03;;;1.23;;
59617;SDS011;45437;51.458;-2.568;2022-07-12T01:58:26;1.65;;;1.20;;
59617;SDS011;45437;51.458;-2.568;2022-07-12T01:59:27;2.83;;;1.40;;
59617;SDS011;45437;51.458;-2.568;2022-07-12T02:00:29;1.70;;;1.30;;
59617;SDS011;45437;51.458;-2.568;2022-07-12T02:02:32;1.88;;;1.17;;
59617;SDS011;45437;51.458;-2.568;2022-07-12T02:03:35;2.77;;;1.63;;
59617;SDS011;45437;51.458;-2.568;2022-07-12T02:04:37;3.05;;;1.30;;
59617;SDS011;45437;51.458;-2.568;2022-07-12T02:05:38;2.57;;;1.37;;
59617;SDS011;45437;51.458;-2.568;2022-07-12T02:06:38;3.03;;;1.20;;
59617;SDS011;45437;51.458;-2.568;2022-07-12T02:07:39;4.38;;;1.58;;
59617;SDS011;45437;51.458;-2.568;2022-07-12T02:08:42;1.60;;;1.35;;
59617;SDS011;45437;51.458;-2.568;2022-07-12T02:10:43;2.53;;;1.17;;
59617;SDS011;45437;51.458;-2.568;2022-07-12T02:11:44;2.80;;;1.30;;
59617;SDS011;45437;51.458;-2.568;2022-07-12T02:12:47;2.13;;;1.30;;
59617;SDS011;45437;51.458;-2.568;2022-07-12T02:13:47;5.57;;;1.73;;
59617;SDS011;45437;51.458;-2.568;2022-07-12T02:14:49;3.83;;;1.50;;
59617;SDS011;45437;51.458;-2.568;2022-07-12T02:15:50;3.30;;;1.58;;
59617;SDS011;45437;51.458;-2.568;2022-07-12T02:16:51;2.00;;;1.40;;
59617;SDS011;45437;51.458;-2.568;2022-07-12T02:17:52;1.53;;;1.27;;
59617;SDS011;45437;51.458;-2.568;2022-07-12T02:18:53;2.70;;;1.50;;
59617;SDS011;45437;51.458;-2.568;2022-07-12T02:19:54;3.27;;;1.70;;
59617;SDS011;45437;51.458;-2.568;2022-07-12T02:20:54;3.67;;;1.73;;
59617;SDS011;45437;51.458;-2.568;2022-07-12T02:21:55;2.83;;;1.60;;
59617;SDS011;45437;51.458;-2.568;2022-07-12T02:22:56;2.93;;;1.63;;
59617;SDS011;45437;51.458;-2.568;2022-07-12T02:23:57;4.40;;;1.50;;
59617;SDS011;45437;51.458;-2.568;2022-07-12T02:24:58;2.20;;;1.35;;
59617;SDS011;45437;51.458;-2.568;2022-07-12T02:25:58;2.00;;;1.40;;
59617;SDS011;45437;51.458;-2.568;2022-07-12T02:26:59;4.07;;;1.53;;
59617;SDS011;45437;51.458;-2.568;2022-07-12T02:28:00;3.42;;;1.17;;
59617;SDS011;45437;51.458;-2.568;2022-07-12T02:29:02;5.17;;;1.50;;
59617;SDS011;45437;51.458;-2.568;2022-07-12T02:30:03;3.20;;;1.80;;
59617;SDS011;45437;51.458;-2.568;2022-07-12T02:31:05;2.63;;;1.52;;
59617;SDS011;45437;51.458;-2.568;2022-07-12T02:32:06;2.37;;;1.60;;
59617;SDS011;45437;51.458;-2.568;2022-07-12T02:33:07;2.22;;;1.42;;
59617;SDS011;45437;51.458;-2.568;2022-07-12T02:34:07;2.23;;;1.30;;
59617;SDS011;45437;51.458;-2.568;2022-07-12T02:35:08;6.07;;;1.60;;
59617;SDS011;45437;51.458;-2.568;2022-07-12T02:36:09;2.30;;;1.60;;
59617;SDS011;45437;51.458;-2.568;2022-07-12T02:37:10;2.60;;;1.40;;
59617;SDS011;45437;51.458;-2.568;2022-07-12T02:38:11;3.00;;;1.40;;
59617;SDS011;45437;51.458;-2.568;2022-07-12T02:39:12;3.13;;;1.67;;
59617;SDS011;45437;51.458;-2.568;2022-07-12T02:40:12;2.43;;;1.50;;
59617;SDS011;45437;51.458;-2.568;2022-07-12T02:41:31;2.90;;;1.42;;
59617;SDS011;45437;51.458;-2.568;2022-07-12T02:42:33;3.00;;;1.60;;
59617;SDS011;45437;51.458;-2.568;2022-07-12T02:43:34;2.67;;;1.53;;
59617;SDS011;45437;51.458;-2.568;2022-07-12T02:44:35;2.95;;;1.50;;
59617;SDS011;45437;51.458;-2.568;2022-07-12T02:45:36;7.83;;;1.67;;
59617;SDS011;45437;51.458;-2.568;2022-07-12T02:46:37;3.43;;;1.30;;
59617;SDS011;45437;51.458;-2.568;2022-07-12T02:47:40;2.57;;;1.50;;
59617;SDS011;45437;51.458;-2.568;2022-07-12T02:48:42;3.45;;;1.70;;
59617;SDS011;45437;51.458;-2.568;2022-07-12T02:49:42;4.13;;;1.47;;
59617;SDS011;45437;51.458;-2.568;2022-07-12T02:50:43;1.63;;;1.33;;
59617;SDS011;45437;51.458;-2.568;2022-07-12T02:51:44;3.60;;;1.67;;
59617;SDS011;45437;51.458;-2.568;2022-07-12T02:52:45;1.17;;;1.07;;
59617;SDS011;45437;51.458;-2.568;2022-07-12T02:53:46;2.03;;;1.40;;
59617;SDS011;45437;51.458;-2.568;2022-07-12T02:54:46;3.13;;;1.60;;
59617;SDS011;45437;51.458;-2.568;2022-07-12T02:55:47;2.73;;;1.80;;
59617;SDS011;45437;51.458;-2.568;2022-07-12T02:56:48;3.67;;;1.35;;
59617;SDS011;45437;51.458;-2.568;2022-07-12T02:57:49;5.40;;;1.50;;
59617;SDS011;45437;51.458;-2.568;2022-07-12T02:58:50;2.23;;;1.43;;
59617;SDS011;45437;51.458;-2.568;2022-07-12T02:59:51;4.43;;;1.60;;
59617;SDS011;45437;51.458;-2.568;2022-07-12T03:00:52;4.90;;;1.50;;
59617;SDS011;45437;51.458;-2.568;2022-07-12T03:01:53;2.47;;;1.50;;
59617;SDS011;45437;51.458;-2.568;2022-07-12T03:02:53;3.63;;;1.40;;
59617;SDS011;45437;51.458;-2.568;2022-07-12T03:03:54;2.57;;;1.47;;
59617;SDS011;45437;51.458;-2.568;2022-07-12T03:04:55;2.50;;;1.57;;
59617;SDS011;45437;51.458;-2.568;2022-07-12T03:05:56;2.43;;;1.37;;
59617;SDS011;45437;51.458;-2.568;2022-07-12T03:06:58;1.65;;;1.40;;
59617;SDS011;45437;51.458;-2.568;2022-07-12T03:07:59;3.63;;;1.50;;
59617;SDS011;45437;51.458;-2.568;2022-07-12T03:09:00;3.55;;;1.48;;
59617;SDS011;45437;51.458;-2.568;2022-07-12T03:10:00;2.80;;;1.43;;
59617;SDS011;45437;51.458;-2.568;2022-07-12T03:11:01;3.30;;;1.33;;
59617;SDS011;45437;51.458;-2.568;2022-07-12T03:12:02;4.00;;;1.30;;
59617;SDS011;45437;51.458;-2.568;2022-07-12T03:13:03;2.80;;;1.50;;
59617;SDS011;45437;51.458;-2.568;2022-07-12T03:14:05;2.88;;;1.38;;
59617;SDS011;45437;51.458;-2.568;2022-07-12T03:15:05;3.90;;;1.37;;
59617;SDS011;45437;51.458;-2.568;2022-07-12T03:16:07;2.13;;;1.20;;
59617;SDS011;45437;51.458;-2.568;2022-07-12T03:17:08;1.73;;;1.30;;
59617;SDS011;45437;51.458;-2.568;2022-07-12T03:18:09;2.85;;;1.45;;
59617;SDS011;45437;51.458;-2.568;2022-07-12T03:20:12;2.58;;;1.40;;
59617;SDS011;45437;51.458;-2.568;2022-07-12T03:21:14;3.92;;;1.80;;
59617;SDS011;45437;51.458;-2.568;2022-07-12T03:22:16;3.55;;;1.48;;
59617;SDS011;45437;51.458;-2.568;2022-07-12T03:23:17;2.20;;;1.57;;
59617;SDS011;45437;51.458;-2.568;2022-07-12T03:24:18;6.00;;;1.50;;
59617;SDS011;45437;51.458;-2.568;2022-07-12T03:25:19;5.03;;;1.57;;
59617;SDS011;45437;51.458;-2.568;2022-07-12T03:26:20;4.15;;;1.70;;
59617;SDS011;45437;51.458;-2.568;2022-07-12T03:27:22;1.50;;;1.40;;
59617;SDS011;45437;51.458;-2.568;2022-07-12T03:28:22;4.07;;;1.70;;
59617;SDS011;45437;51.458;-2.568;2022-07-12T03:29:25;2.40;;;1.40;;
59617;SDS011;45437;51.458;-2.568;2022-07-12T03:30:25;1.87;;;1.30;;
59617;SDS011;45437;51.458;-2.568;2022-07-12T03:31:27;1.77;;;1.25;;
59617;SDS011;45437;51.458;-2.568;2022-07-12T03:32:28;2.25;;;1.30;;
59617;SDS011;45437;51.458;-2.568;2022-07-12T03:33:29;4.43;;;1.70;;
59617;SDS011;45437;51.458;-2.568;2022-07-12T03:34:30;7.70;;;1.87;;
59617;SDS011;45437;51.458;-2.568;2022-07-12T03:35:31;3.60;;;1.60;;
59617;SDS011;45437;51.458;-2.568;2022-07-12T03:36:31;2.13;;;1.50;;
59617;SDS011;45437;51.458;-2.568;2022-07-12T03:37:45;4.30;;;1.53;;
59617;SDS011;45437;51.458;-2.568;2022-07-12T03:38:52;1.92;;;1.20;;
59617;SDS011;45437;51.458;-2.568;2022-07-12T03:39:52;2.10;;;1.40;;
59617;SDS011;45437;51.458;-2.568;2022-07-12T03:40:53;5.35;;;1.65;;
59617;SDS011;45437;51.458;-2.568;2022-07-12T03:41:54;4.67;;;1.50;;
59617;SDS011;45437;51.458;-2.568;2022-07-12T03:42:55;1.83;;;1.30;;
59617;SDS011;45437;51.458;-2.568;2022-07-12T03:43:57;3.05;;;1.20;;
59617;SDS011;45437;51.458;-2.568;2022-07-12T03:44:57;8.63;;;1.60;;
59617;SDS011;45437;51.458;-2.568;2022-07-12T03:45:58;3.13;;;1.40;;
59617;SDS011;45437;51.458;-2.568;2022-07-12T03:46:59;2.17;;;1.40;;
59617;SDS011;45437;51.458;-2.568;2022-07-12T03:48:00;3.25;;;1.52;;
59617;SDS011;45437;51.458;-2.568;2022-07-12T03:49:01;4.83;;;1.70;;
59617;SDS011;45437;51.458;-2.568;2022-07-12T03:50:03;2.60;;;1.37;;
59617;SDS011;45437;51.458;-2.568;2022-07-12T03:51:08;1.77;;;1.38;;
59617;SDS011;45437;51.458;-2.568;2022-07-12T03:52:09;6.53;;;1.60;;
59617;SDS011;45437;51.458;-2.568;2022-07-12T03:53:09;4.47;;;1.70;;
59617;SDS011;45437;51.458;-2.568;2022-07-12T03:54:10;3.27;;;1.40;;
59617;SDS011;45437;51.458;-2.568;2022-07-12T03:55:11;5.33;;;1.70;;
59617;SDS011;45437;51.458;-2.568;2022-07-12T03:56:13;3.08;;;1.52;;
59617;SDS011;45437;51.458;-2.568;2022-07-12T03:57:34;2.53;;;1.65;;
59617;SDS011;45437;51.458;-2.568;2022-07-12T03:58:35;2.70;;;1.60;;
59617;SDS011;45437;51.458;-2.568;2022-07-12T03:59:36;3.10;;;1.60;;
59617;SDS011;45437;51.458;-2.568;2022-07-12T04:00:37;2.93;;;1.67;;
59617;SDS011;45437;51.458;-2.568;2022-07-12T04:01:40;5.45;;;1.67;;
59617;SDS011;45437;51.458;-2.568;2022-07-12T04:02:41;2.50;;;1.70;;
59617;SDS011;45437;51.458;-2.568;2022-07-12T04:03:42;4.85;;;1.75;;
59617;SDS011;45437;51.458;-2.568;2022-07-12T04:04:43;2.47;;;1.80;;
59617;SDS011;45437;51.458;-2.568;2022-07-12T04:05:44;4.27;;;1.60;;
59617;SDS011;45437;51.458;-2.568;2022-07-12T04:06:45;3.57;;;1.70;;
59617;SDS011;45437;51.458;-2.568;2022-07-12T04:07:46;5.05;;;1.65;;
59617;SDS011;45437;51.458;-2.568;2022-07-12T04:08:47;3.07;;;1.60;;
59617;SDS011;45437;51.458;-2.568;2022-07-12T04:09:47;3.07;;;1.80;;
59617;SDS011;45437;51.458;-2.568;2022-07-12T04:10:48;3.47;;;1.57;;
59617;SDS011;45437;51.458;-2.568;2022-07-12T04:11:50;4.28;;;2.00;;
59617;SDS011;45437;51.458;-2.568;2022-07-12T04:12:50;2.33;;;1.50;;
59617;SDS011;45437;51.458;-2.568;2022-07-12T04:13:51;3.00;;;1.70;;
59617;SDS011;45437;51.458;-2.568;2022-07-12T04:14:52;2.63;;;1.63;;
59617;SDS011;45437;51.458;-2.568;2022-07-12T04:15:53;2.53;;;1.70;;
59617;SDS011;45437;51.458;-2.568;2022-07-12T04:16:54;5.87;;;1.70;;
59617;SDS011;45437;51.458;-2.568;2022-07-12T04:17:56;5.28;;;1.80;;
59617;SDS011;45437;51.458;-2.568;2022-07-12T04:18:57;2.43;;;1.60;;
59617;SDS011;45437;51.458;-2.568;2022-07-12T04:19:58;4.00;;;1.60;;
59617;SDS011;45437;51.458;-2.568;2022-07-12T04:20:58;3.27;;;1.57;;
59617;SDS011;45437;51.458;-2.568;2022-07-12T04:21:59;1.92;;;1.50;;
59617;SDS011;45437;51.458;-2.568;2022-07-12T04:23:00;2.40;;;1.60;;
59617;SDS011;45437;51.458;-2.568;2022-07-12T04:24:01;3.47;;;1.50;;
59617;SDS011;45437;51.458;-2.568;2022-07-12T04:25:02;1.98;;;1.20;;
59617;SDS011;45437;51.458;-2.568;2022-07-12T04:26:03;2.97;;;1.85;;
59617;SDS011;45437;51.458;-2.568;2022-07-12T04:27:04;1.87;;;1.30;;
59617;SDS011;45437;51.458;-2.568;2022-07-12T04:28:05;3.57;;;1.67;;
59617;SDS011;45437;51.458;-2.568;2022-07-12T04:29:06;2.70;;;1.50;;
59617;SDS011;45437;51.458;-2.568;2022-07-12T04:30:07;2.57;;;1.67;;
59617;SDS011;45437;51.458;-2.568;2022-07-12T04:31:08;3.90;;;1.58;;
59617;SDS011;45437;51.458;-2.568;2022-07-12T04:32:09;3.03;;;1.55;;
59617;SDS011;45437;51.458;-2.568;2022-07-12T04:33:10;2.53;;;1.40;;
59617;SDS011;45437;51.458;-2.568;2022-07-12T04:34:11;4.33;;;1.33;;
59617;SDS011;45437;51.458;-2.568;2022-07-12T04:35:16;1.48;;;1.25;;
59617;SDS011;45437;51.458;-2.568;2022-07-12T04:36:17;3.00;;;1.60;;
59617;SDS011;45437;51.458;-2.568;2022-07-12T04:37:18;2.47;;;1.60;;
59617;SDS011;45437;51.458;-2.568;2022-07-12T04:38:19;3.23;;;1.33;;
59617;SDS011;45437;51.458;-2.568;2022-07-12T04:39:20;3.53;;;1.48;;
59617;SDS011;45437;51.458;-2.568;2022-07-12T04:40:20;3.33;;;1.40;;
59617;SDS011;45437;51.458;-2.568;2022-07-12T04:41:21;4.43;;;1.13;;
59617;SDS011;45437;51.458;-2.568;2022-07-12T04:42:22;2.70;;;1.20;;
59617;SDS011;45437;51.458;-2.568;2022-07-12T04:43:23;2.90;;;1.43;;
59617;SDS011;45437;51.458;-2.568;2022-07-12T04:44:24;1.85;;;1.30;;
59617;SDS011;45437;51.458;-2.568;2022-07-12T04:45:25;2.07;;;1.53;;
59617;SDS011;45437;51.458;-2.568;2022-07-12T04:46:26;4.30;;;1.47;;
59617;SDS011;45437;51.458;-2.568;2022-07-12T04:47:26;2.83;;;1.40;;
59617;SDS011;45437;51.458;-2.568;2022-07-12T04:48:27;3.00;;;1.93;;
59617;SDS011;45437;51.458;-2.568;2022-07-12T04:49:28;3.20;;;1.45;;
59617;SDS011;45437;51.458;-2.568;2022-07-12T04:50:32;2.28;;;1.52;;
59617;SDS011;45437;51.458;-2.568;2022-07-12T04:51:33;5.30;;;1.73;;
59617;SDS011;45437;51.458;-2.568;2022-07-12T04:52:34;1.92;;;1.48;;
59617;SDS011;45437;51.458;-2.568;2022-07-12T04:53:35;2.38;;;1.55;;
59617;SDS011;45437;51.458;-2.568;2022-07-12T04:54:36;1.93;;;1.47;;
59617;SDS011;45437;51.458;-2.568;2022-07-12T04:55:37;2.53;;;1.63;;
59617;SDS011;45437;51.458;-2.568;2022-07-12T04:56:38;3.50;;;1.77;;
59617;SDS011;45437;51.458;-2.568;2022-07-12T04:57:39;3.10;;;1.73;;
59617;SDS011;45437;51.458;-2.568;2022-07-12T04:58:39;2.43;;;1.50;;
59617;SDS011;45437;51.458;-2.568;2022-07-12T04:59:40;4.53;;;1.60;;
59617;SDS011;45437;51.458;-2.568;2022-07-12T05:00:41;2.87;;;1.67;;
59617;SDS011;45437;51.458;-2.568;2022-07-12T05:01:42;2.73;;;1.93;;
59617;SDS011;45437;51.458;-2.568;2022-07-12T05:02:42;4.87;;;1.87;;
59617;SDS011;45437;51.458;-2.568;2022-07-12T05:03:43;2.53;;;1.70;;
59617;SDS011;45437;51.458;-2.568;2022-07-12T05:04:44;3.22;;;1.80;;
59617;SDS011;45437;51.458;-2.568;2022-07-12T05:05:46;2.78;;;1.90;;
59617;SDS011;45437;51.458;-2.568;2022-07-12T05:06:47;3.20;;;1.70;;
59617;SDS011;45437;51.458;-2.568;2022-07-12T05:07:48;4.65;;;1.92;;
59617;SDS011;45437;51.458;-2.568;2022-07-12T05:08:49;3.57;;;1.80;;
59617;SDS011;45437;51.458;-2.568;2022-07-12T05:09:50;1.90;;;1.35;;
59617;SDS011;45437;51.458;-2.568;2022-07-12T05:10:54;4.13;;;1.80;;
59617;SDS011;45437;51.458;-2.568;2022-07-12T05:11:55;2.53;;;1.60;;
59617;SDS011;45437;51.458;-2.568;2022-07-12T05:12:56;4.88;;;1.90;;
59617;SDS011;45437;51.458;-2.568;2022-07-12T05:13:56;2.60;;;1.42;;
59617;SDS011;45437;51.458;-2.568;2022-07-12T05:14:57;5.13;;;1.73;;
59617;SDS011;45437;51.458;-2.568;2022-07-12T05:15:58;4.63;;;1.50;;
59617;SDS011;45437;51.458;-2.568;2022-07-12T05:16:59;3.20;;;1.73;;
59617;SDS011;45437;51.458;-2.568;2022-07-12T05:18:00;4.90;;;1.55;;
59617;SDS011;45437;51.458;-2.568;2022-07-12T05:19:01;8.60;;;2.10;;
59617;SDS011;45437;51.458;-2.568;2022-07-12T05:20:02;3.38;;;1.85;;
59617;SDS011;45437;51.458;-2.568;2022-07-12T05:21:03;3.03;;;1.58;;
59617;SDS011;45437;51.458;-2.568;2022-07-12T05:22:04;3.80;;;1.67;;
59617;SDS011;45437;51.458;-2.568;2022-07-12T05:23:05;2.67;;;1.43;;
59617;SDS011;45437;51.458;-2.568;2022-07-12T05:24:06;4.80;;;1.70;;
59617;SDS011;45437;51.458;-2.568;2022-07-12T05:25:07;3.35;;;1.77;;
59617;SDS011;45437;51.458;-2.568;2022-07-12T05:27:09;4.47;;;1.85;;
59617;SDS011;45437;51.458;-2.568;2022-07-12T05:28:10;3.70;;;1.87;;
59617;SDS011;45437;51.458;-2.568;2022-07-12T05:29:11;2.75;;;1.63;;
59617;SDS011;45437;51.458;-2.568;2022-07-12T05:30:12;2.93;;;1.70;;
59617;SDS011;45437;51.458;-2.568;2022-07-12T05:31:13;3.87;;;1.93;;
59617;SDS011;45437;51.458;-2.568;2022-07-12T05:32:14;4.53;;;1.90;;
59617;SDS011;45437;51.458;-2.568;2022-07-12T05:33:14;3.93;;;2.13;;
59617;SDS011;45437;51.458;-2.568;2022-07-12T05:34:15;5.60;;;1.80;;
59617;SDS011;45437;51.458;-2.568;2022-07-12T05:35:16;4.70;;;2.37;;
59617;SDS011;45437;51.458;-2.568;2022-07-12T05:36:17;3.23;;;1.80;;
59617;SDS011;45437;51.458;-2.568;2022-07-12T05:37:18;5.53;;;1.83;;
59617;SDS011;45437;51.458;-2.568;2022-07-12T05:38:19;4.00;;;2.10;;
59617;SDS011;45437;51.458;-2.568;2022-07-12T05:39:19;3.87;;;1.70;;
59617;SDS011;45437;51.458;-2.568;2022-07-12T05:40:20;9.43;;;1.85;;
59617;SDS011;45437;51.458;-2.568;2022-07-12T05:41:21;3.07;;;1.50;;
59617;SDS011;45437;51.458;-2.568;2022-07-12T05:42:22;4.10;;;2.13;;
59617;SDS011;45437;51.458;-2.568;2022-07-12T05:43:23;3.60;;;1.50;;
59617;SDS011;45437;51.458;-2.568;2022-07-12T05:44:23;5.13;;;1.63;;
59617;SDS011;45437;51.458;-2.568;2022-07-12T05:45:24;4.07;;;1.90;;
59617;SDS011;45437;51.458;-2.568;2022-07-12T05:46:25;4.17;;;1.80;;
59617;SDS011;45437;51.458;-2.568;2022-07-12T05:47:26;3.72;;;1.73;;
59617;SDS011;45437;51.458;-2.568;2022-07-12T05:49:29;3.67;;;1.58;;
59617;SDS011;45437;51.458;-2.568;2022-07-12T05:50:30;3.00;;;1.70;;
59617;SDS011;45437;51.458;-2.568;2022-07-12T05:51:30;3.67;;;1.67;;
59617;SDS011;45437;51.458;-2.568;2022-07-12T05:52:50;2.38;;;1.60;;
59617;SDS011;45437;51.458;-2.568;2022-07-12T05:54:09;5.45;;;1.73;;
59617;SDS011;45437;51.458;-2.568;2022-07-12T05:55:11;4.38;;;1.60;;
59617;SDS011;45437;51.458;-2.568;2022-07-12T05:56:11;5.67;;;2.03;;
59617;SDS011;45437;51.458;-2.568;2022-07-12T05:57:16;3.55;;;1.70;;
59617;SDS011;45437;51.458;-2.568;2022-07-12T05:58:18;9.95;;;1.80;;
59617;SDS011;45437;51.458;-2.568;2022-07-12T05:59:19;2.30;;;1.55;;
59617;SDS011;45437;51.458;-2.568;2022-07-12T06:00:20;3.83;;;1.55;;
59617;SDS011;45437;51.458;-2.568;2022-07-12T06:01:21;6.27;;;1.70;;
59617;SDS011;45437;51.458;-2.568;2022-07-12T06:02:22;4.27;;;1.83;;
59617;SDS011;45437;51.458;-2.568;2022-07-12T06:03:23;4.93;;;1.60;;
59617;SDS011;45437;51.458;-2.568;2022-07-12T06:04:24;7.00;;;1.57;;
59617;SDS011;45437;51.458;-2.568;2022-07-12T06:05:24;3.30;;;1.60;;
59617;SDS011;45437;51.458;-2.568;2022-07-12T06:06:25;3.93;;;1.53;;
59617;SDS011;45437;51.458;-2.568;2022-07-12T06:07:26;2.33;;;1.50;;
59617;SDS011;45437;51.458;-2.568;2022-07-12T06:08:27;2.00;;;1.60;;
59617;SDS011;45437;51.458;-2.568;2022-07-12T06:09:28;3.70;;;1.60;;
59617;SDS011;45437;51.458;-2.568;2022-07-12T06:10:29;5.23;;;1.83;;
59617;SDS011;45437;51.458;-2.568;2022-07-12T06:11:30;4.50;;;1.43;;
59617;SDS011;45437;51.458;-2.568;2022-07-12T06:12:33;4.28;;;1.50;;
59617;SDS011;45437;51.458;-2.568;2022-07-12T06:13:33;2.57;;;1.60;;